createdAt,value
2018-12-05T00:00:15.381Z,3.71
2018-12-05T00:01:15.458Z,3.74
2018-12-05T00:02:15.617Z,3.72
2018-12-05T00:03:15.513Z,3.72
2018-12-05T00:04:15.277Z,3.75
2018-12-05T00:05:15.375Z,3.8
2018-12-05T00:06:16.041Z,3.74
2018-12-05T00:07:15.551Z,3.73
2018-12-05T00:08:15.452Z,3.73
2018-12-05T00:09:15.543Z,3.74
2018-12-05T00:10:15.298Z,3.81
2018-12-05T00:11:15.713Z,3.82
2018-12-05T00:12:15.218Z,3.77
2018-12-05T00:13:15.235Z,3.81
2018-12-05T00:14:15.378Z,3.82
2018-12-05T00:15:15.391Z,3.77
2018-12-05T00:16:15.254Z,3.78
2018-12-05T00:17:15.297Z,3.82
2018-12-05T00:18:15.251Z,3.78
2018-12-05T00:19:15.358Z,3.77
2018-12-05T00:20:15.238Z,3.75
2018-12-05T00:21:15.356Z,3.74
2018-12-05T00:22:15.372Z,3.77
2018-12-05T00:23:15.544Z,3.8
2018-12-05T00:24:15.225Z,3.86
2018-12-05T00:25:15.533Z,3.8
2018-12-05T00:26:15.561Z,3.73
2018-12-05T00:27:15.276Z,3.72
2018-12-05T00:28:15.304Z,3.7
2018-12-05T00:29:15.207Z,3.77
2018-12-05T00:30:15.282Z,3.72
2018-12-05T00:31:15.262Z,3.72
2018-12-05T00:32:15.312Z,3.75
2018-12-05T00:33:15.262Z,3.67
2018-12-05T00:34:15.216Z,3.74
2018-12-05T00:35:15.200Z,3.74
2018-12-05T00:36:15.184Z,3.73
2018-12-05T00:37:15.349Z,3.64
2018-12-05T00:38:15.232Z,3.63
2018-12-05T00:39:15.188Z,3.66
2018-12-05T00:40:15.470Z,3.63
2018-12-05T00:41:15.234Z,3.61
2018-12-05T00:42:15.405Z,3.61
2018-12-05T00:43:15.278Z,3.6
2018-12-05T00:44:15.284Z,3.62
2018-12-05T00:45:15.199Z,3.68
2018-12-05T00:46:15.194Z,3.65
2018-12-05T00:47:15.165Z,3.66
2018-12-05T00:48:15.201Z,3.62
2018-12-05T00:49:15.337Z,3.59
2018-12-05T00:50:15.281Z,3.6
2018-12-05T00:51:15.302Z,3.66
2018-12-05T00:52:15.236Z,3.64
2018-12-05T00:53:15.241Z,3.64
2018-12-05T00:54:15.323Z,3.62
2018-12-05T00:55:15.259Z,3.6
2018-12-05T00:56:15.378Z,3.6
2018-12-05T00:57:15.581Z,3.63
2018-12-05T00:58:15.237Z,3.63
2018-12-05T00:59:15.574Z,3.74
2018-12-05T01:00:15.181Z,3.71
2018-12-05T01:01:15.262Z,3.72
2018-12-05T01:02:15.131Z,3.69
2018-12-05T01:03:15.171Z,3.68
2018-12-05T01:04:15.238Z,3.68
2018-12-05T01:05:15.472Z,3.72
2018-12-05T01:06:15.392Z,3.66
2018-12-05T01:07:15.344Z,3.68
2018-12-05T01:08:15.282Z,3.72
2018-12-05T01:09:15.183Z,3.7
2018-12-05T01:10:15.206Z,3.74
2018-12-05T01:11:15.167Z,3.79
2018-12-05T01:12:15.242Z,3.74
2018-12-05T01:13:15.405Z,3.77
2018-12-05T01:14:15.298Z,3.75
2018-12-05T01:15:15.154Z,3.79
2018-12-05T01:16:15.246Z,3.74
2018-12-05T01:17:15.183Z,3.77
2018-12-05T01:18:15.195Z,3.75
2018-12-05T01:19:15.151Z,3.76
2018-12-05T01:20:15.329Z,3.75
2018-12-05T01:21:15.217Z,3.76
2018-12-05T01:22:15.289Z,3.76
2018-12-05T01:23:15.484Z,3.73
2018-12-05T01:24:15.175Z,3.72
2018-12-05T01:25:15.205Z,3.73
2018-12-05T01:26:15.687Z,3.74
2018-12-05T01:27:15.188Z,3.71
2018-12-05T01:28:15.177Z,3.71
2018-12-05T01:29:15.130Z,3.73
2018-12-05T01:30:15.445Z,3.64
2018-12-05T01:31:15.184Z,3.67
2018-12-05T01:32:15.170Z,3.68
2018-12-05T01:33:16.627Z,3.7
2018-12-05T01:34:15.186Z,3.72
2018-12-05T01:35:15.325Z,3.74
2018-12-05T01:36:15.150Z,3.74
2018-12-05T01:37:15.288Z,3.65
2018-12-05T01:38:15.731Z,3.61
2018-12-05T01:39:15.164Z,3.58
2018-12-05T01:40:15.379Z,3.59
2018-12-05T01:41:15.372Z,3.52
2018-12-05T01:42:15.364Z,3.48
2018-12-05T01:43:15.137Z,3.46
2018-12-05T01:44:15.135Z,3.49
2018-12-05T01:45:15.258Z,3.43
2018-12-05T01:46:15.141Z,3.48
2018-12-05T01:47:15.119Z,3.43
2018-12-05T01:48:15.182Z,3.39
2018-12-05T01:49:15.121Z,3.4
2018-12-05T01:50:15.390Z,3.38
2018-12-05T01:51:15.132Z,3.45
2018-12-05T01:52:15.359Z,3.4
2018-12-05T01:53:15.243Z,3.43
2018-12-05T01:54:15.121Z,3.41
2018-12-05T01:55:15.204Z,3.4
2018-12-05T01:56:15.136Z,3.42
2018-12-05T01:57:15.142Z,3.4
2018-12-05T01:58:15.122Z,3.37
2018-12-05T01:59:15.120Z,3.33
2018-12-05T02:00:15.216Z,3.37
2018-12-05T02:01:15.134Z,3.39
2018-12-05T02:02:15.135Z,3.48
2018-12-05T02:03:15.377Z,3.48
2018-12-05T02:04:15.103Z,3.49
2018-12-05T02:05:15.156Z,3.45
2018-12-05T02:06:15.461Z,3.45
2018-12-05T02:07:15.680Z,3.46
2018-12-05T02:08:15.104Z,3.44
2018-12-05T02:09:15.144Z,3.4
2018-12-05T02:10:15.103Z,3.48
2018-12-05T02:11:15.172Z,3.46
2018-12-05T02:12:15.563Z,3.41
2018-12-05T02:13:15.210Z,3.38
2018-12-05T02:14:15.188Z,3.39
2018-12-05T02:15:15.146Z,3.46
2018-12-05T02:16:15.337Z,3.39
2018-12-05T02:17:15.065Z,3.4
2018-12-05T02:18:15.103Z,3.37
2018-12-05T02:19:15.119Z,3.49
2018-12-05T02:20:15.200Z,3.45
2018-12-05T02:21:15.147Z,3.44
2018-12-05T02:22:15.169Z,3.5
2018-12-05T02:23:15.311Z,3.46
2018-12-05T02:24:15.358Z,3.43
2018-12-05T02:25:15.094Z,3.4
2018-12-05T02:26:15.477Z,3.43
2018-12-05T02:27:15.230Z,3.51
2018-12-05T02:28:15.518Z,3.47
2018-12-05T02:29:15.611Z,3.5
2018-12-05T02:30:15.364Z,3.47
2018-12-05T02:31:15.183Z,3.48
2018-12-05T02:32:15.225Z,3.58
2018-12-05T02:33:15.532Z,3.47
2018-12-05T02:34:15.083Z,3.5
2018-12-05T02:35:15.398Z,3.49
2018-12-05T02:36:15.202Z,3.49
2018-12-05T02:37:15.123Z,3.42
2018-12-05T02:38:15.118Z,3.39
2018-12-05T02:39:15.200Z,3.39
2018-12-05T02:40:15.058Z,3.39
2018-12-05T02:41:15.184Z,3.4
2018-12-05T02:42:15.273Z,3.43
2018-12-05T02:43:15.241Z,3.36
2018-12-05T02:44:15.169Z,3.34
2018-12-05T02:45:15.179Z,3.29
2018-12-05T02:46:15.147Z,3.33
2018-12-05T02:47:15.159Z,3.43
2018-12-05T02:48:15.135Z,3.43
2018-12-05T02:49:15.146Z,3.37
2018-12-05T02:50:15.434Z,3.37
2018-12-05T02:51:15.065Z,3.33
2018-12-05T02:52:15.145Z,3.3
2018-12-05T02:53:15.207Z,3.3
2018-12-05T02:54:15.053Z,3.32
2018-12-05T02:55:15.172Z,3.29
2018-12-05T02:56:15.241Z,3.34
2018-12-05T02:57:15.154Z,3.3
2018-12-05T02:58:15.118Z,3.28
2018-12-05T02:59:15.263Z,3.34
2018-12-05T03:00:15.166Z,3.38
2018-12-05T03:01:15.036Z,3.39
2018-12-05T03:02:15.098Z,3.39
2018-12-05T03:03:15.149Z,3.36
2018-12-05T03:04:15.348Z,3.46
2018-12-05T03:05:15.241Z,3.45
2018-12-05T03:06:15.270Z,3.43
2018-12-05T03:07:15.152Z,3.35
2018-12-05T03:08:15.114Z,3.33
2018-12-05T03:09:15.192Z,3.32
2018-12-05T03:10:15.191Z,3.39
2018-12-05T03:11:15.254Z,3.42
2018-12-05T03:12:15.142Z,3.5
2018-12-05T03:13:15.171Z,3.49
2018-12-05T03:14:15.281Z,3.41
2018-12-05T03:15:15.181Z,3.39
2018-12-05T03:16:15.231Z,3.45
2018-12-05T03:17:15.001Z,3.39
2018-12-05T03:18:15.118Z,3.41
2018-12-05T03:19:15.216Z,3.5
2018-12-05T03:20:15.808Z,3.51
2018-12-05T03:21:15.125Z,3.52
2018-12-05T03:22:15.273Z,3.48
2018-12-05T03:23:15.197Z,3.38
2018-12-05T03:24:15.175Z,3.36
2018-12-05T03:25:15.142Z,3.31
2018-12-05T03:26:15.107Z,3.31
2018-12-05T03:27:15.112Z,3.31
2018-12-05T03:28:15.085Z,3.26
2018-12-05T03:29:15.189Z,3.29
2018-12-05T03:30:15.156Z,3.27
2018-12-05T03:31:15.073Z,3.25
2018-12-05T03:32:15.008Z,3.22
2018-12-05T03:33:15.218Z,3.2
2018-12-05T03:34:15.051Z,3.21
2018-12-05T03:35:14.963Z,3.2
2018-12-05T03:36:15.048Z,3.15
2018-12-05T03:37:15.094Z,3.18
2018-12-05T03:38:15.214Z,3.14
2018-12-05T03:39:15.107Z,3.11
2018-12-05T03:40:14.951Z,3.12
2018-12-05T03:41:15.108Z,3.14
2018-12-05T03:42:15.071Z,3.15
2018-12-05T03:43:14.954Z,3.23
2018-12-05T03:44:15.015Z,3.23
2018-12-05T03:45:15.005Z,3.28
2018-12-05T03:46:15.095Z,3.36
2018-12-05T03:47:15.113Z,3.33
2018-12-05T03:48:15.045Z,3.29
2018-12-05T03:49:15.176Z,3.31
2018-12-05T03:50:15.057Z,3.31
2018-12-05T03:51:15.009Z,3.35
2018-12-05T03:52:15.139Z,3.35
2018-12-05T03:53:15.086Z,3.32
2018-12-05T03:54:14.925Z,3.34
2018-12-05T03:55:15.076Z,3.4
2018-12-05T03:56:14.985Z,3.36
2018-12-05T03:57:15.014Z,3.34
2018-12-05T03:58:15.090Z,3.33
2018-12-05T03:59:15.002Z,3.31
2018-12-05T04:00:15.148Z,3.36
2018-12-05T04:01:15.098Z,3.33
2018-12-05T04:02:15.209Z,3.38
2018-12-05T04:03:15.101Z,3.38
2018-12-05T04:04:15.042Z,3.33
2018-12-05T04:05:15.138Z,3.38
2018-12-05T04:06:15.099Z,3.47
2018-12-05T04:07:15.811Z,3.41
2018-12-05T04:08:15.119Z,3.43
2018-12-05T04:09:15.012Z,3.36
2018-12-05T04:10:15.796Z,3.4
2018-12-05T04:11:15.128Z,3.4
2018-12-05T04:12:15.083Z,3.41
2018-12-05T04:13:14.945Z,3.39
2018-12-05T04:14:15.074Z,3.38
2018-12-05T04:15:15.153Z,3.31
2018-12-05T04:16:14.885Z,3.4
2018-12-05T04:17:14.921Z,3.33
2018-12-05T04:18:15.094Z,3.28
2018-12-05T04:19:15.296Z,3.31
2018-12-05T04:20:15.102Z,3.34
2018-12-05T04:21:15.003Z,3.26
2018-12-05T04:22:15.266Z,3.29
2018-12-05T04:23:15.074Z,3.26
2018-12-05T04:24:15.162Z,3.33
2018-12-05T04:25:14.953Z,3.34
2018-12-05T04:26:14.927Z,3.26
2018-12-05T04:27:15.323Z,3.28
2018-12-05T04:28:15.173Z,3.32
2018-12-05T04:29:14.888Z,3.32
2018-12-05T04:30:15.169Z,3.28
2018-12-05T04:31:15.107Z,3.35
2018-12-05T04:32:16.153Z,3.27
2018-12-05T04:33:15.140Z,3.25
2018-12-05T04:34:15.130Z,3.26
2018-12-05T04:35:14.899Z,3.27
2018-12-05T04:36:15.109Z,3.3
2018-12-05T04:37:14.964Z,3.25
2018-12-05T04:38:15.428Z,3.23
2018-12-05T04:39:15.099Z,3.27
2018-12-05T04:40:15.320Z,3.31
2018-12-05T04:41:14.894Z,3.3
2018-12-05T04:42:14.915Z,3.26
2018-12-05T04:43:14.987Z,3.21
2018-12-05T04:44:14.899Z,3.23
2018-12-05T04:45:14.934Z,3.27
2018-12-05T04:46:15.146Z,3.26
2018-12-05T04:47:15.150Z,3.28
2018-12-05T04:48:14.984Z,3.3
2018-12-05T04:49:16.015Z,3.29
2018-12-05T04:50:15.105Z,3.25
2018-12-05T04:51:14.945Z,3.26
2018-12-05T04:52:15.310Z,3.29
2018-12-05T04:53:14.926Z,3.23
2018-12-05T04:54:15.051Z,3.24
2018-12-05T04:55:14.890Z,3.21
2018-12-05T04:56:14.893Z,3.24
2018-12-05T04:57:14.835Z,3.21
2018-12-05T04:58:15.126Z,3.23
2018-12-05T04:59:14.880Z,3.27
2018-12-05T05:00:14.956Z,3.28
2018-12-05T05:01:14.845Z,3.26
2018-12-05T05:02:14.885Z,3.28
2018-12-05T05:03:14.877Z,3.27
2018-12-05T05:04:15.137Z,3.25
2018-12-05T05:05:15.000Z,3.25
2018-12-05T05:06:14.861Z,3.25
2018-12-05T05:07:15.040Z,3.26
2018-12-05T05:08:15.115Z,3.25
2018-12-05T05:09:14.938Z,3.25
2018-12-05T05:10:14.945Z,3.23
2018-12-05T05:11:14.829Z,3.29
2018-12-05T05:12:15.189Z,3.26
2018-12-05T05:13:14.916Z,3.25
2018-12-05T05:14:14.848Z,3.24
2018-12-05T05:15:15.175Z,3.28
2018-12-05T05:16:14.816Z,3.3
2018-12-05T05:17:14.802Z,3.26
2018-12-05T05:18:14.845Z,3.37
2018-12-05T05:19:15.194Z,3.32
2018-12-05T05:20:14.920Z,3.3
2018-12-05T05:21:14.872Z,3.29
2018-12-05T05:22:14.844Z,3.31
2018-12-05T05:23:15.074Z,3.31
2018-12-05T05:24:14.891Z,3.3
2018-12-05T05:25:14.844Z,3.24
2018-12-05T05:26:14.854Z,3.26
2018-12-05T05:27:14.898Z,3.28
2018-12-05T05:28:14.817Z,3.28
2018-12-05T05:29:14.856Z,3.32
2018-12-05T05:30:14.813Z,3.3
2018-12-05T05:31:14.835Z,3.25
2018-12-05T05:32:14.999Z,3.27
2018-12-05T05:33:15.553Z,3.25
2018-12-05T05:34:15.114Z,3.22
2018-12-05T05:35:14.849Z,3.3
2018-12-05T05:36:17.721Z,3.32
2018-12-05T05:37:14.885Z,3.33
2018-12-05T05:38:14.821Z,3.32
2018-12-05T05:39:15.121Z,3.28
2018-12-05T05:40:14.883Z,3.28
2018-12-05T05:41:14.812Z,3.28
2018-12-05T05:42:15.733Z,3.29
2018-12-05T05:43:14.855Z,3.29
2018-12-05T05:44:14.858Z,3.26
2018-12-05T05:45:15.093Z,3.28
2018-12-05T05:46:14.904Z,3.29
2018-12-05T05:47:15.104Z,3.34
2018-12-05T05:48:15.162Z,3.3
2018-12-05T05:49:14.979Z,3.31
2018-12-05T05:50:14.794Z,3.35
2018-12-05T05:51:14.882Z,3.3
2018-12-05T05:52:14.795Z,3.34
2018-12-05T05:53:14.983Z,3.38
2018-12-05T05:54:14.839Z,3.42
2018-12-05T05:55:14.828Z,3.38
2018-12-05T05:56:14.919Z,3.37
2018-12-05T05:57:14.882Z,3.39
2018-12-05T05:58:17.685Z,3.36
2018-12-05T05:59:14.846Z,3.37
2018-12-05T06:00:14.780Z,3.32
2018-12-05T06:01:14.834Z,3.31
2018-12-05T06:02:15.183Z,3.33
2018-12-05T06:03:14.775Z,3.34
2018-12-05T06:04:14.827Z,3.39
2018-12-05T06:05:15.158Z,3.37
2018-12-05T06:06:15.249Z,3.49
2018-12-05T06:07:15.044Z,3.44
2018-12-05T06:08:15.220Z,3.39
2018-12-05T06:09:14.806Z,3.43
2018-12-05T06:10:15.065Z,3.47
2018-12-05T06:11:14.851Z,3.51
2018-12-05T06:12:14.917Z,3.52
2018-12-05T06:13:14.782Z,3.57
2018-12-05T06:14:15.192Z,3.53
2018-12-05T06:15:15.663Z,3.52
2018-12-05T06:16:15.045Z,3.57
2018-12-05T06:17:14.866Z,3.55
2018-12-05T06:18:14.815Z,3.48
2018-12-05T06:19:14.865Z,3.56
2018-12-05T06:20:14.769Z,3.58
2018-12-05T06:21:14.896Z,3.6
2018-12-05T06:22:14.852Z,3.56
2018-12-05T06:23:14.868Z,3.54
2018-12-05T06:24:15.055Z,3.6
2018-12-05T06:25:14.752Z,3.55
2018-12-05T06:26:14.909Z,3.55
2018-12-05T06:27:14.822Z,3.6
2018-12-05T06:28:15.099Z,3.64
2018-12-05T06:29:15.138Z,3.62
2018-12-05T06:30:14.751Z,3.62
2018-12-05T06:31:14.779Z,3.61
2018-12-05T06:32:14.786Z,3.55
2018-12-05T06:33:14.889Z,3.63
2018-12-05T06:34:14.781Z,3.55
2018-12-05T06:35:14.807Z,3.52
2018-12-05T06:36:14.803Z,3.58
2018-12-05T06:37:14.752Z,3.56
2018-12-05T06:38:15.105Z,3.54
2018-12-05T06:39:14.894Z,3.53
2018-12-05T06:40:14.859Z,3.62
2018-12-05T06:41:14.814Z,3.58
2018-12-05T06:42:14.804Z,3.58
2018-12-05T06:43:14.913Z,3.57
2018-12-05T06:44:14.787Z,3.63
2018-12-05T06:45:14.865Z,3.62
2018-12-05T06:46:14.802Z,3.55
2018-12-05T06:47:14.931Z,3.59
2018-12-05T06:48:14.708Z,3.61
2018-12-05T06:49:14.752Z,3.62
2018-12-05T06:50:14.969Z,3.54
2018-12-05T06:51:14.908Z,3.5
2018-12-05T06:52:14.894Z,3.59
2018-12-05T06:53:14.815Z,3.65
2018-12-05T06:54:14.791Z,3.54
2018-12-05T06:55:14.742Z,3.59
2018-12-05T06:56:14.706Z,3.62
2018-12-05T06:57:14.730Z,3.64
2018-12-05T06:58:14.735Z,3.67
2018-12-05T06:59:14.741Z,3.66
2018-12-05T07:00:14.698Z,3.69
2018-12-05T07:01:14.874Z,3.69
2018-12-05T07:02:14.677Z,3.75
2018-12-05T07:03:14.748Z,3.74
2018-12-05T07:04:14.690Z,3.72
2018-12-05T07:05:14.679Z,3.73
2018-12-05T07:06:14.693Z,3.72
2018-12-05T07:07:14.678Z,3.74
2018-12-05T07:08:14.701Z,3.74
2018-12-05T07:09:14.724Z,3.69
2018-12-05T07:10:14.821Z,3.57
2018-12-05T07:11:14.742Z,3.51
2018-12-05T07:12:14.897Z,3.49
2018-12-05T07:13:16.034Z,3.48
2018-12-05T07:14:14.761Z,3.53
2018-12-05T07:15:14.677Z,3.5
2018-12-05T07:16:14.828Z,3.57
2018-12-05T07:17:14.718Z,3.59
2018-12-05T07:18:14.687Z,3.49
2018-12-05T07:19:14.664Z,3.53
2018-12-05T07:20:14.744Z,3.47
2018-12-05T07:21:14.761Z,3.55
2018-12-05T07:22:14.760Z,3.52
2018-12-05T07:23:14.728Z,3.51
2018-12-05T07:24:14.760Z,3.5
2018-12-05T07:25:14.700Z,3.42
2018-12-05T07:26:14.834Z,3.35
2018-12-05T07:27:14.840Z,3.31
2018-12-05T07:28:14.850Z,3.32
2018-12-05T07:29:14.681Z,3.29
2018-12-05T07:30:14.698Z,3.33
2018-12-05T07:31:14.680Z,3.33
2018-12-05T07:32:14.732Z,3.36
2018-12-05T07:33:14.692Z,3.35
2018-12-05T07:34:14.716Z,3.41
2018-12-05T07:35:14.653Z,3.42
2018-12-05T07:36:14.842Z,3.39
2018-12-05T07:37:14.810Z,3.31
2018-12-05T07:38:19.916Z,3.27
2018-12-05T07:39:14.872Z,3.26
2018-12-05T07:40:15.094Z,3.27
2018-12-05T07:41:14.894Z,3.3
2018-12-05T07:42:14.814Z,3.38
2018-12-05T07:43:14.763Z,3.36
2018-12-05T07:44:14.676Z,3.28
2018-12-05T07:45:14.663Z,3.26
2018-12-05T07:46:14.635Z,3.35
2018-12-05T07:47:14.729Z,3.31
2018-12-05T07:48:14.873Z,3.42
2018-12-05T07:49:15.104Z,3.42
2018-12-05T07:50:16.137Z,3.44
2018-12-05T07:51:14.606Z,3.46
2018-12-05T07:52:14.653Z,3.42
2018-12-05T07:53:14.720Z,3.45
2018-12-05T07:54:14.738Z,3.4
2018-12-05T07:55:14.701Z,3.44
2018-12-05T07:56:14.835Z,3.43
2018-12-05T07:57:14.633Z,3.41
2018-12-05T07:58:14.790Z,3.32
2018-12-05T07:59:14.661Z,3.36
2018-12-05T08:00:14.605Z,3.32
2018-12-05T08:01:14.818Z,3.38
2018-12-05T08:02:14.714Z,3.39
2018-12-05T08:03:14.760Z,3.37
2018-12-05T08:04:14.662Z,3.41
2018-12-05T08:05:14.668Z,3.39
2018-12-05T08:06:15.025Z,3.36
2018-12-05T08:07:15.055Z,3.42
2018-12-05T08:08:14.688Z,3.37
2018-12-05T08:09:14.699Z,3.41
2018-12-05T08:10:14.831Z,3.32
2018-12-05T08:11:14.810Z,3.28
2018-12-05T08:12:14.803Z,3.31
2018-12-05T08:13:14.623Z,3.32
2018-12-05T08:14:14.663Z,3.3
2018-12-05T08:15:14.672Z,3.27
2018-12-05T08:16:14.678Z,3.34
2018-12-05T08:17:14.584Z,3.31
2018-12-05T08:18:14.834Z,3.29
2018-12-05T08:19:14.689Z,3.27
2018-12-05T08:20:14.834Z,3.35
2018-12-05T08:21:14.612Z,3.32
2018-12-05T08:22:14.844Z,3.32
2018-12-05T08:23:14.793Z,3.32
2018-12-05T08:24:14.622Z,3.34
2018-12-05T08:25:14.651Z,3.39
2018-12-05T08:26:14.785Z,3.44
2018-12-05T08:27:14.822Z,3.44
2018-12-05T08:28:14.661Z,3.34
2018-12-05T08:29:14.938Z,3.38
2018-12-05T08:30:14.608Z,3.36
2018-12-05T08:31:14.770Z,3.45
2018-12-05T08:32:14.777Z,3.45
2018-12-05T08:33:15.351Z,3.4
2018-12-05T08:34:14.711Z,3.38
2018-12-05T08:35:14.594Z,3.42
2018-12-05T08:36:14.590Z,3.42
2018-12-05T08:37:14.552Z,3.48
2018-12-05T08:38:14.620Z,3.49
2018-12-05T08:39:14.827Z,3.52
2018-12-05T08:40:14.580Z,3.42
2018-12-05T08:41:14.564Z,3.47
2018-12-05T08:42:14.615Z,3.48
2018-12-05T08:43:14.620Z,3.46
2018-12-05T08:44:14.525Z,3.51
2018-12-05T08:45:14.614Z,3.39
2018-12-05T08:46:14.573Z,3.5
2018-12-05T08:47:14.605Z,3.41
2018-12-05T08:48:14.588Z,3.43
2018-12-05T08:49:14.558Z,3.47
2018-12-05T08:50:14.531Z,3.52
2018-12-05T08:51:14.639Z,3.47
2018-12-05T08:52:14.522Z,3.55
2018-12-05T08:53:14.588Z,3.56
2018-12-05T08:54:21.560Z,3.52
2018-12-05T08:55:14.534Z,3.53
2018-12-05T08:56:14.607Z,3.46
2018-12-05T08:57:14.550Z,3.49
2018-12-05T08:58:14.523Z,3.5
2018-12-05T08:59:14.611Z,3.45
2018-12-05T09:00:14.635Z,3.53
2018-12-05T09:01:14.563Z,3.48
2018-12-05T09:02:15.140Z,3.55
2018-12-05T09:03:14.554Z,3.5
2018-12-05T09:04:14.526Z,3.49
2018-12-05T09:05:14.791Z,3.54
2018-12-05T09:06:14.755Z,3.6
2018-12-05T09:07:14.553Z,3.46
2018-12-05T09:08:14.768Z,3.41
2018-12-05T09:09:14.706Z,3.47
2018-12-05T09:10:15.357Z,3.46
2018-12-05T09:11:14.889Z,3.51
2018-12-05T09:12:14.656Z,3.51
2018-12-05T09:13:14.581Z,3.53
2018-12-05T09:14:14.591Z,3.5
2018-12-05T09:15:14.631Z,3.57
2018-12-05T09:16:14.650Z,3.52
2018-12-05T09:17:14.832Z,3.49
2018-12-05T09:18:14.583Z,3.46
2018-12-05T09:19:14.493Z,3.57
2018-12-05T09:20:14.626Z,3.55
2018-12-05T09:21:14.623Z,3.53
2018-12-05T09:22:14.735Z,3.54
2018-12-05T09:23:14.610Z,3.54
2018-12-05T09:24:14.504Z,3.54
2018-12-05T09:25:14.542Z,3.58
2018-12-05T09:26:14.687Z,3.65
2018-12-05T09:27:14.614Z,3.56
2018-12-05T09:28:14.530Z,3.62
2018-12-05T09:29:14.520Z,3.57
2018-12-05T09:30:15.187Z,3.46
2018-12-05T09:31:14.760Z,3.5
2018-12-05T09:32:14.566Z,3.52
2018-12-05T09:33:14.558Z,3.53
2018-12-05T09:34:14.480Z,3.61
2018-12-05T09:35:14.769Z,3.7
2018-12-05T09:36:14.540Z,3.67
2018-12-05T09:37:14.545Z,3.7
2018-12-05T09:38:14.670Z,3.67
2018-12-05T09:39:14.745Z,3.64
2018-12-05T09:40:14.513Z,3.67
2018-12-05T09:41:14.521Z,3.63
2018-12-05T09:42:14.600Z,3.69
2018-12-05T09:43:14.490Z,3.73
2018-12-05T09:44:14.480Z,3.71
2018-12-05T09:45:14.523Z,3.65
2018-12-05T09:46:15.311Z,3.72
2018-12-05T09:47:16.519Z,3.75
2018-12-05T09:48:14.681Z,3.79
2018-12-05T09:49:14.942Z,3.62
2018-12-05T09:50:14.567Z,3.69
2018-12-05T09:51:14.585Z,3.69
2018-12-05T09:52:14.498Z,3.55
2018-12-05T09:53:14.507Z,3.7
2018-12-05T09:54:14.543Z,3.73
2018-12-05T09:55:14.596Z,3.82
2018-12-05T09:56:14.653Z,3.78
2018-12-05T09:57:14.674Z,3.72
2018-12-05T09:58:14.658Z,3.77
2018-12-05T09:59:14.580Z,3.76
2018-12-05T10:00:14.544Z,3.83
2018-12-05T10:01:14.773Z,3.73
2018-12-05T10:02:14.631Z,3.72
2018-12-05T10:03:14.880Z,3.76
2018-12-05T10:04:14.769Z,3.82
2018-12-05T10:05:14.832Z,3.86
2018-12-05T10:06:14.571Z,3.84
2018-12-05T10:07:14.606Z,3.86
2018-12-05T10:08:14.816Z,3.89
2018-12-05T10:09:14.573Z,3.92
2018-12-05T10:10:14.673Z,3.96
2018-12-05T10:11:14.535Z,3.92
2018-12-05T10:12:14.431Z,3.98
2018-12-05T10:13:14.432Z,3.98
2018-12-05T10:14:14.592Z,3.87
2018-12-05T10:15:14.615Z,3.99
2018-12-05T10:16:14.991Z,3.95
2018-12-05T10:17:14.782Z,3.98
2018-12-05T10:18:14.530Z,3.92
2018-12-05T10:19:14.443Z,3.9
2018-12-05T10:20:14.695Z,3.91
2018-12-05T10:21:14.415Z,3.91
2018-12-05T10:22:14.464Z,3.94
2018-12-05T10:23:14.429Z,3.91
2018-12-05T10:24:14.437Z,3.9
2018-12-05T10:25:14.443Z,3.97
2018-12-05T10:26:14.591Z,4.01
2018-12-05T10:27:14.493Z,4.04
2018-12-05T10:28:14.879Z,3.99
2018-12-05T10:29:14.560Z,4.01
2018-12-05T10:30:14.496Z,4.03
2018-12-05T10:31:14.401Z,4.01
2018-12-05T10:32:14.483Z,3.97
2018-12-05T10:33:14.492Z,4.04
2018-12-05T10:34:14.407Z,4.01
2018-12-05T10:35:14.401Z,3.99
2018-12-05T10:36:14.673Z,4.07
2018-12-05T10:37:14.419Z,3.98
2018-12-05T10:38:14.428Z,4.04
2018-12-05T10:39:14.407Z,4.07
2018-12-05T10:40:14.803Z,4.1
2018-12-05T10:41:14.377Z,4.16
2018-12-05T10:42:14.442Z,4.19
2018-12-05T10:43:14.425Z,4.2
2018-12-05T10:44:14.534Z,4.14
2018-12-05T10:45:14.633Z,4.24
2018-12-05T10:46:15.238Z,4.27
2018-12-05T10:47:14.790Z,4.21
2018-12-05T10:48:14.605Z,4.28
2018-12-05T10:49:14.395Z,4.31
2018-12-05T10:50:14.507Z,4.32
2018-12-05T10:51:14.721Z,4.4
2018-12-05T10:52:14.478Z,4.34
2018-12-05T10:53:14.505Z,4.31
2018-12-05T10:54:14.440Z,4.3
2018-12-05T10:55:14.550Z,4.28
2018-12-05T10:56:14.595Z,4.39
2018-12-05T10:57:14.673Z,4.37
2018-12-05T10:58:14.403Z,4.49
2018-12-05T10:59:14.490Z,4.52
2018-12-05T11:00:14.532Z,4.53
2018-12-05T11:01:14.440Z,4.53
2018-12-05T11:02:15.132Z,4.54
2018-12-05T11:03:14.409Z,4.58
2018-12-05T11:04:14.538Z,4.59
2018-12-05T11:05:14.550Z,4.54
2018-12-05T11:06:14.638Z,4.45
2018-12-05T11:07:14.377Z,4.52
2018-12-05T11:08:14.422Z,4.58
2018-12-05T11:09:14.666Z,4.52
2018-12-05T11:10:14.467Z,4.59
2018-12-05T11:11:14.496Z,4.56
2018-12-05T11:12:14.477Z,4.54
2018-12-05T11:13:14.503Z,4.52
2018-12-05T11:14:14.575Z,4.56
2018-12-05T11:15:14.413Z,4.58
2018-12-05T11:16:14.573Z,4.59
2018-12-05T11:17:14.574Z,4.61
2018-12-05T11:18:14.398Z,4.61
2018-12-05T11:19:14.904Z,4.65
2018-12-05T11:20:14.577Z,4.6
2018-12-05T11:21:14.410Z,4.62
2018-12-05T11:22:14.510Z,4.66
2018-12-05T11:23:14.468Z,4.61
2018-12-05T11:24:14.687Z,4.53
2018-12-05T11:25:14.399Z,4.53
2018-12-05T11:26:14.466Z,4.64
2018-12-05T11:27:14.705Z,4.64
2018-12-05T11:28:15.233Z,4.65
2018-12-05T11:29:14.471Z,4.65
2018-12-05T11:30:14.643Z,4.65
2018-12-05T11:31:14.622Z,4.52
2018-12-05T11:32:14.666Z,4.59
2018-12-05T11:33:14.498Z,4.58
2018-12-05T11:34:14.503Z,4.5
2018-12-05T11:35:14.371Z,4.66
2018-12-05T11:36:14.444Z,4.63
2018-12-05T11:37:14.758Z,4.7
2018-12-05T11:38:14.369Z,4.58
2018-12-05T11:39:14.453Z,4.64
2018-12-05T11:40:15.157Z,4.58
2018-12-05T11:41:14.420Z,4.61
2018-12-05T11:42:14.550Z,4.7
2018-12-05T11:43:14.371Z,4.72
2018-12-05T11:44:14.498Z,4.68
2018-12-05T11:45:14.568Z,4.64
2018-12-05T11:46:14.729Z,4.65
2018-12-05T11:47:14.461Z,4.68
2018-12-05T11:48:14.507Z,4.64
2018-12-05T11:49:14.908Z,4.66
2018-12-05T11:50:14.380Z,4.66
2018-12-05T11:51:14.409Z,4.67
2018-12-05T11:52:14.533Z,4.72
2018-12-05T11:53:14.443Z,4.77
2018-12-05T11:54:14.305Z,4.71
2018-12-05T11:55:14.451Z,4.73
2018-12-05T11:56:14.353Z,4.69
2018-12-05T11:57:14.328Z,4.71
2018-12-05T11:58:14.373Z,4.78
2018-12-05T11:59:14.345Z,4.74
2018-12-05T12:00:14.316Z,4.75
2018-12-05T12:01:14.324Z,4.72
2018-12-05T12:02:14.371Z,4.7
2018-12-05T12:03:14.322Z,4.84
2018-12-05T12:04:14.442Z,4.88
2018-12-05T12:05:14.491Z,4.91
2018-12-05T12:06:14.508Z,4.97
2018-12-05T12:07:14.351Z,5.04
2018-12-05T12:08:14.940Z,5
2018-12-05T12:09:14.395Z,4.98
2018-12-05T12:10:14.832Z,5.02
2018-12-05T12:11:14.327Z,5.05
2018-12-05T12:12:14.393Z,4.97
2018-12-05T12:13:14.545Z,5.06
2018-12-05T12:14:14.379Z,4.98
2018-12-05T12:15:14.323Z,4.9
2018-12-05T12:16:14.366Z,4.98
2018-12-05T12:17:14.298Z,5.1
2018-12-05T12:18:14.446Z,5.02
2018-12-05T12:19:14.315Z,5.02
2018-12-05T12:20:14.429Z,5.02
2018-12-05T12:21:14.323Z,5.08
2018-12-05T12:22:14.338Z,5.1
2018-12-05T12:23:14.851Z,5.12
2018-12-05T12:24:14.416Z,5.14
2018-12-05T12:25:15.786Z,5.08
2018-12-05T12:26:15.564Z,5.14
2018-12-05T12:27:14.344Z,5.18
2018-12-05T12:28:14.613Z,5.3
2018-12-05T12:29:14.442Z,5.36
2018-12-05T12:30:16.445Z,5.36
2018-12-05T12:31:14.271Z,5.34
2018-12-05T12:32:14.371Z,5.39
2018-12-05T12:33:14.721Z,5.46
2018-12-05T12:34:14.420Z,5.35
2018-12-05T12:35:14.335Z,5.33
2018-12-05T12:36:14.329Z,5.35
2018-12-05T12:37:14.270Z,5.34
2018-12-05T12:38:14.340Z,5.3
2018-12-05T12:39:14.518Z,5.43
2018-12-05T12:40:14.627Z,5.41
2018-12-05T12:41:14.313Z,5.47
2018-12-05T12:42:14.307Z,5.44
2018-12-05T12:43:14.276Z,5.52
2018-12-05T12:44:14.378Z,5.51
2018-12-05T12:45:14.246Z,5.48
2018-12-05T12:46:14.346Z,5.53
2018-12-05T12:47:14.676Z,5.45
2018-12-05T12:48:14.322Z,5.54
2018-12-05T12:49:14.485Z,5.58
2018-12-05T12:50:14.623Z,5.52
2018-12-05T12:51:14.633Z,5.52
2018-12-05T12:52:14.268Z,5.48
2018-12-05T12:53:14.259Z,5.55
2018-12-05T12:54:14.404Z,5.59
2018-12-05T12:55:14.506Z,5.51
2018-12-05T12:56:14.322Z,5.48
2018-12-05T12:57:14.292Z,5.52
2018-12-05T12:58:15.094Z,5.61
2018-12-05T12:59:14.458Z,5.52
2018-12-05T13:00:14.470Z,5.6
2018-12-05T13:01:14.257Z,5.63
2018-12-05T13:02:14.264Z,5.6
2018-12-05T13:03:14.431Z,5.63
2018-12-05T13:04:14.273Z,5.75
2018-12-05T13:05:14.425Z,5.72
2018-12-05T13:06:14.624Z,5.72
2018-12-05T13:07:14.295Z,5.68
2018-12-05T13:08:14.288Z,5.63
2018-12-05T13:09:14.309Z,5.62
2018-12-05T13:10:14.471Z,5.58
2018-12-05T13:11:14.668Z,5.64
2018-12-05T13:12:14.281Z,5.63
2018-12-05T13:13:14.235Z,5.61
2018-12-05T13:14:14.431Z,5.55
2018-12-05T13:15:14.540Z,5.61
2018-12-05T13:16:14.535Z,5.62
2018-12-05T13:17:14.227Z,5.6
2018-12-05T13:18:14.255Z,5.58
2018-12-05T13:19:14.380Z,5.64
2018-12-05T13:20:14.181Z,5.62
2018-12-05T13:21:14.291Z,5.68